sensor_id;sensor_type;location;lat;lon;timestamp;P1;durP1;ratioP1;P2;durP2;ratioP2
22935;SDS011;11633;42.716;23.312;2022-12-01T00:00:54;1.95;;;1.00;;
22935;SDS011;11633;42.716;23.312;2022-12-01T00:03:19;1.65;;;0.90;;
22935;SDS011;11633;42.716;23.312;2022-12-01T00:05:45;1.58;;;0.68;;
22935;SDS011;11633;42.716;23.312;2022-12-01T00:08:10;1.55;;;0.70;;
22935;SDS011;11633;42.716;23.312;2022-12-01T00:10:35;1.38;;;0.73;;
22935;SDS011;11633;42.716;23.312;2022-12-01T00:13:01;4.82;;;0.85;;
22935;SDS011;11633;42.716;23.312;2022-12-01T00:15:31;0.90;;;0.73;;
22935;SDS011;11633;42.716;23.312;2022-12-01T00:17:58;1.90;;;0.70;;
22935;SDS011;11633;42.716;23.312;2022-12-01T00:20:24;0.90;;;0.60;;
22935;SDS011;11633;42.716;23.312;2022-12-01T00:22:49;1.95;;;0.68;;
22935;SDS011;11633;42.716;23.312;2022-12-01T00:25:15;1.08;;;0.52;;
22935;SDS011;11633;42.716;23.312;2022-12-01T00:27:41;1.55;;;1.10;;
22935;SDS011;11633;42.716;23.312;2022-12-01T00:30:07;1.27;;;0.55;;
22935;SDS011;11633;42.716;23.312;2022-12-01T00:32:33;1.45;;;0.73;;
22935;SDS011;11633;42.716;23.312;2022-12-01T00:34:58;0.32;;;0.30;;
22935;SDS011;11633;42.716;23.312;2022-12-01T00:37:23;0.55;;;0.30;;
22935;SDS011;11633;42.716;23.312;2022-12-01T00:39:49;0.85;;;0.30;;
22935;SDS011;11633;42.716;23.312;2022-12-01T00:42:14;1.00;;;0.45;;
22935;SDS011;11633;42.716;23.312;2022-12-01T00:44:39;2.42;;;0.70;;
22935;SDS011;11633;42.716;23.312;2022-12-01T00:47:05;0.40;;;0.40;;
22935;SDS011;11633;42.716;23.312;2022-12-01T00:49:30;0.38;;;0.30;;
22935;SDS011;11633;42.716;23.312;2022-12-01T00:51:55;0.85;;;0.60;;
22935;SDS011;11633;42.716;23.312;2022-12-01T00:54:20;0.32;;;0.30;;
22935;SDS011;11633;42.716;23.312;2022-12-01T00:56:46;0.57;;;0.50;;
22935;SDS011;11633;42.716;23.312;2022-12-01T00:59:11;1.35;;;0.90;;
22935;SDS011;11633;42.716;23.312;2022-12-01T01:01:36;1.20;;;0.70;;
22935;SDS011;11633;42.716;23.312;2022-12-01T01:04:02;1.27;;;0.70;;
22935;SDS011;11633;42.716;23.312;2022-12-01T01:06:27;2.22;;;0.57;;
22935;SDS011;11633;42.716;23.312;2022-12-01T01:08:53;1.60;;;0.90;;
22935;SDS011;11633;42.716;23.312;2022-12-01T01:11:18;1.95;;;0.90;;
22935;SDS011;11633;42.716;23.312;2022-12-01T01:13:44;0.65;;;0.50;;
22935;SDS011;11633;42.716;23.312;2022-12-01T01:16:16;0.98;;;0.70;;
22935;SDS011;11633;42.716;23.312;2022-12-01T01:18:42;0.73;;;0.50;;
22935;SDS011;11633;42.716;23.312;2022-12-01T01:21:09;0.77;;;0.60;;
22935;SDS011;11633;42.716;23.312;2022-12-01T01:23:35;0.98;;;0.70;;
22935;SDS011;11633;42.716;23.312;2022-12-01T01:26:01;1.45;;;0.52;;
22935;SDS011;11633;42.716;23.312;2022-12-01T01:31:32;1.05;;;0.60;;
22935;SDS011;11633;42.716;23.312;2022-12-01T01:33:57;0.93;;;0.50;;
22935;SDS011;11633;42.716;23.312;2022-12-01T01:36:22;1.65;;;1.02;;
22935;SDS011;11633;42.716;23.312;2022-12-01T01:41:54;1.60;;;0.45;;
22935;SDS011;11633;42.716;23.312;2022-12-01T01:47:03;4.00;;;0.60;;
22935;SDS011;11633;42.716;23.312;2022-12-01T01:49:28;0.70;;;0.70;;
22935;SDS011;11633;42.716;23.312;2022-12-01T01:51:54;0.20;;;0.20;;
22935;SDS011;11633;42.716;23.312;2022-12-01T01:57:22;0.88;;;0.32;;
22935;SDS011;11633;42.716;23.312;2022-12-01T01:59:49;0.75;;;0.50;;
22935;SDS011;11633;42.716;23.312;2022-12-01T02:02:15;0.63;;;0.40;;
22935;SDS011;11633;42.716;23.312;2022-12-01T02:04:44;0.70;;;0.50;;
22935;SDS011;11633;42.716;23.312;2022-12-01T02:07:10;1.05;;;0.63;;
22935;SDS011;11633;42.716;23.312;2022-12-01T02:09:36;0.55;;;0.38;;
22935;SDS011;11633;42.716;23.312;2022-12-01T02:19:54;0.60;;;0.57;;
22935;SDS011;11633;42.716;23.312;2022-12-01T02:32:38;1.25;;;0.60;;
22935;SDS011;11633;42.716;23.312;2022-12-01T02:37:49;0.90;;;0.50;;
22935;SDS011;11633;42.716;23.312;2022-12-01T02:40:53;1.30;;;0.75;;
22935;SDS011;11633;42.716;23.312;2022-12-01T02:48:33;0.80;;;0.43;;
22935;SDS011;11633;42.716;23.312;2022-12-01T02:51:00;0.80;;;0.20;;
22935;SDS011;11633;42.716;23.312;2022-12-01T02:53:26;0.70;;;0.30;;
22935;SDS011;11633;42.716;23.312;2022-12-01T02:55:53;0.70;;;0.20;;
22935;SDS011;11633;42.716;23.312;2022-12-01T02:58:18;0.10;;;0.10;;
22935;SDS011;11633;42.716;23.312;2022-12-01T03:00:53;0.10;;;0.10;;
22935;SDS011;11633;42.716;23.312;2022-12-01T03:06:02;0.00;;;0.00;;
22935;SDS011;11633;42.716;23.312;2022-12-01T03:08:52;0.10;;;0.10;;
22935;SDS011;11633;42.716;23.312;2022-12-01T03:11:27;0.20;;;0.08;;
22935;SDS011;11633;42.716;23.312;2022-12-01T03:16:48;0.10;;;0.10;;
22935;SDS011;11633;42.716;23.312;2022-12-01T03:21:49;0.10;;;0.10;;
22935;SDS011;11633;42.716;23.312;2022-12-01T03:24:18;0.13;;;0.10;;
22935;SDS011;11633;42.716;23.312;2022-12-01T03:26:46;0.60;;;0.28;;
22935;SDS011;11633;42.716;23.312;2022-12-01T03:29:13;0.20;;;0.20;;
22935;SDS011;11633;42.716;23.312;2022-12-01T03:31:43;0.40;;;0.20;;
22935;SDS011;11633;42.716;23.312;2022-12-01T03:36:48;0.22;;;0.13;;
22935;SDS011;11633;42.716;23.312;2022-12-01T03:39:16;2.33;;;0.20;;
22935;SDS011;11633;42.716;23.312;2022-12-01T03:41:58;0.63;;;0.30;;
22935;SDS011;11633;42.716;23.312;2022-12-01T03:44:26;0.43;;;0.25;;
22935;SDS011;11633;42.716;23.312;2022-12-01T03:47:01;0.17;;;0.10;;
22935;SDS011;11633;42.716;23.312;2022-12-01T03:49:28;0.55;;;0.20;;
22935;SDS011;11633;42.716;23.312;2022-12-01T03:57:04;0.43;;;0.30;;
22935;SDS011;11633;42.716;23.312;2022-12-01T03:59:32;0.57;;;0.40;;
22935;SDS011;11633;42.716;23.312;2022-12-01T04:01:59;0.22;;;0.22;;
22935;SDS011;11633;42.716;23.312;2022-12-01T04:04:25;0.95;;;0.20;;
22935;SDS011;11633;42.716;23.312;2022-12-01T04:06:50;0.15;;;0.10;;
22935;SDS011;11633;42.716;23.312;2022-12-01T04:09:16;3.67;;;0.40;;
22935;SDS011;11633;42.716;23.312;2022-12-01T04:11:41;0.47;;;0.30;;
22935;SDS011;11633;42.716;23.312;2022-12-01T04:14:25;0.40;;;0.30;;
22935;SDS011;11633;42.716;23.312;2022-12-01T04:16:50;0.73;;;0.45;;
22935;SDS011;11633;42.716;23.312;2022-12-01T04:19:15;0.30;;;0.20;;
22935;SDS011;11633;42.716;23.312;2022-12-01T04:21:41;2.42;;;0.22;;
22935;SDS011;11633;42.716;23.312;2022-12-01T04:24:06;0.30;;;0.20;;
22935;SDS011;11633;42.716;23.312;2022-12-01T04:26:33;1.17;;;0.47;;
22935;SDS011;11633;42.716;23.312;2022-12-01T04:28:59;1.00;;;0.38;;
22935;SDS011;11633;42.716;23.312;2022-12-01T04:31:24;0.43;;;0.30;;
22935;SDS011;11633;42.716;23.312;2022-12-01T04:33:49;1.08;;;0.38;;
22935;SDS011;11633;42.716;23.312;2022-12-01T04:36:15;0.20;;;0.10;;
22935;SDS011;11633;42.716;23.312;2022-12-01T04:38:40;2.03;;;0.30;;
22935;SDS011;11633;42.716;23.312;2022-12-01T04:41:11;0.20;;;0.20;;
22935;SDS011;11633;42.716;23.312;2022-12-01T04:43:37;0.10;;;0.10;;
22935;SDS011;11633;42.716;23.312;2022-12-01T04:46:03;0.30;;;0.20;;
22935;SDS011;11633;42.716;23.312;2022-12-01T04:48:28;0.20;;;0.20;;
22935;SDS011;11633;42.716;23.312;2022-12-01T04:50:53;2.15;;;0.68;;
22935;SDS011;11633;42.716;23.312;2022-12-01T04:53:19;0.90;;;0.47;;
22935;SDS011;11633;42.716;23.312;2022-12-01T04:55:44;1.38;;;0.35;;
22935;SDS011;11633;42.716;23.312;2022-12-01T04:58:09;0.88;;;0.32;;
22935;SDS011;11633;42.716;23.312;2022-12-01T05:00:34;0.38;;;0.20;;
22935;SDS011;11633;42.716;23.312;2022-12-01T05:03:00;0.60;;;0.40;;
22935;SDS011;11633;42.716;23.312;2022-12-01T05:05:26;0.10;;;0.10;;
22935;SDS011;11633;42.716;23.312;2022-12-01T05:07:51;0.30;;;0.22;;
22935;SDS011;11633;42.716;23.312;2022-12-01T05:10:16;0.10;;;0.10;;
22935;SDS011;11633;42.716;23.312;2022-12-01T05:12:43;0.10;;;0.10;;
22935;SDS011;11633;42.716;23.312;2022-12-01T05:15:10;0.28;;;0.10;;
22935;SDS011;11633;42.716;23.312;2022-12-01T05:17:35;0.05;;;0.05;;
22935;SDS011;11633;42.716;23.312;2022-12-01T05:20:01;0.20;;;0.20;;
22935;SDS011;11633;42.716;23.312;2022-12-01T05:22:44;0.30;;;0.22;;
22935;SDS011;11633;42.716;23.312;2022-12-01T05:25:10;1.50;;;0.25;;
22935;SDS011;11633;42.716;23.312;2022-12-01T05:27:35;0.17;;;0.10;;
22935;SDS011;11633;42.716;23.312;2022-12-01T05:30:00;0.47;;;0.30;;
22935;SDS011;11633;42.716;23.312;2022-12-01T05:32:25;1.30;;;0.20;;
22935;SDS011;11633;42.716;23.312;2022-12-01T05:34:51;1.55;;;0.40;;
22935;SDS011;11633;42.716;23.312;2022-12-01T05:37:16;0.40;;;0.20;;
22935;SDS011;11633;42.716;23.312;2022-12-01T05:39:42;0.63;;;0.40;;
22935;SDS011;11633;42.716;23.312;2022-12-01T05:42:07;0.60;;;0.30;;
22935;SDS011;11633;42.716;23.312;2022-12-01T05:44:32;0.65;;;0.30;;
22935;SDS011;11633;42.716;23.312;2022-12-01T05:46:57;1.30;;;0.20;;
22935;SDS011;11633;42.716;23.312;2022-12-01T05:49:22;0.73;;;0.35;;
22935;SDS011;11633;42.716;23.312;2022-12-01T05:51:48;0.88;;;0.40;;
22935;SDS011;11633;42.716;23.312;2022-12-01T05:54:13;1.42;;;0.75;;
22935;SDS011;11633;42.716;23.312;2022-12-01T05:56:40;1.10;;;0.30;;
22935;SDS011;11633;42.716;23.312;2022-12-01T05:59:05;0.40;;;0.38;;
22935;SDS011;11633;42.716;23.312;2022-12-01T06:01:30;1.15;;;0.45;;
22935;SDS011;11633;42.716;23.312;2022-12-01T06:03:56;0.82;;;0.68;;
22935;SDS011;11633;42.716;23.312;2022-12-01T06:06:21;1.35;;;0.75;;
22935;SDS011;11633;42.716;23.312;2022-12-01T06:08:46;0.95;;;0.50;;
22935;SDS011;11633;42.716;23.312;2022-12-01T06:11:11;0.77;;;0.40;;
22935;SDS011;11633;42.716;23.312;2022-12-01T06:13:37;1.02;;;0.60;;
22935;SDS011;11633;42.716;23.312;2022-12-01T06:16:03;2.28;;;0.63;;
22935;SDS011;11633;42.716;23.312;2022-12-01T06:18:29;0.50;;;0.38;;
22935;SDS011;11633;42.716;23.312;2022-12-01T06:20:54;0.82;;;0.30;;
22935;SDS011;11633;42.716;23.312;2022-12-01T06:23:20;2.88;;;0.55;;
22935;SDS011;11633;42.716;23.312;2022-12-01T06:25:45;1.20;;;0.47;;
22935;SDS011;11633;42.716;23.312;2022-12-01T06:28:10;2.53;;;0.70;;
22935;SDS011;11633;42.716;23.312;2022-12-01T06:30:36;0.30;;;0.20;;
22935;SDS011;11633;42.716;23.312;2022-12-01T06:33:01;1.13;;;0.40;;
22935;SDS011;11633;42.716;23.312;2022-12-01T06:35:26;1.50;;;0.32;;
22935;SDS011;11633;42.716;23.312;2022-12-01T06:37:52;0.68;;;0.40;;
22935;SDS011;11633;42.716;23.312;2022-12-01T06:40:18;1.17;;;0.60;;
22935;SDS011;11633;42.716;23.312;2022-12-01T06:42:43;0.68;;;0.50;;
22935;SDS011;11633;42.716;23.312;2022-12-01T06:45:08;1.10;;;0.40;;
22935;SDS011;11633;42.716;23.312;2022-12-01T06:47:34;1.58;;;0.60;;
22935;SDS011;11633;42.716;23.312;2022-12-01T06:50:00;0.60;;;0.47;;
22935;SDS011;11633;42.716;23.312;2022-12-01T06:52:25;2.63;;;1.30;;
22935;SDS011;11633;42.716;23.312;2022-12-01T06:54:50;2.10;;;1.23;;
22935;SDS011;11633;42.716;23.312;2022-12-01T06:57:16;1.98;;;0.82;;
22935;SDS011;11633;42.716;23.312;2022-12-01T06:59:41;3.55;;;0.70;;
22935;SDS011;11633;42.716;23.312;2022-12-01T07:02:08;2.25;;;1.17;;
22935;SDS011;11633;42.716;23.312;2022-12-01T07:04:33;2.97;;;1.92;;
22935;SDS011;11633;42.716;23.312;2022-12-01T07:06:58;4.47;;;2.20;;
22935;SDS011;11633;42.716;23.312;2022-12-01T07:09:24;6.30;;;3.03;;
22935;SDS011;11633;42.716;23.312;2022-12-01T07:11:49;6.75;;;2.78;;
22935;SDS011;11633;42.716;23.312;2022-12-01T07:14:19;8.27;;;3.00;;
22935;SDS011;11633;42.716;23.312;2022-12-01T07:16:46;4.43;;;2.00;;
22935;SDS011;11633;42.716;23.312;2022-12-01T07:19:11;2.53;;;1.52;;
22935;SDS011;11633;42.716;23.312;2022-12-01T07:21:36;3.05;;;1.58;;
22935;SDS011;11633;42.716;23.312;2022-12-01T07:24:01;5.40;;;1.52;;
22935;SDS011;11633;42.716;23.312;2022-12-01T07:26:27;5.22;;;1.85;;
22935;SDS011;11633;42.716;23.312;2022-12-01T07:28:52;2.30;;;0.88;;
22935;SDS011;11633;42.716;23.312;2022-12-01T07:31:18;1.67;;;1.00;;
22935;SDS011;11633;42.716;23.312;2022-12-01T07:33:44;2.17;;;1.42;;
22935;SDS011;11633;42.716;23.312;2022-12-01T07:36:09;1.55;;;0.70;;
22935;SDS011;11633;42.716;23.312;2022-12-01T07:38:36;2.13;;;1.20;;
22935;SDS011;11633;42.716;23.312;2022-12-01T07:41:19;2.08;;;1.83;;
22935;SDS011;11633;42.716;23.312;2022-12-01T07:43:45;3.03;;;1.23;;
22935;SDS011;11633;42.716;23.312;2022-12-01T07:46:12;2.95;;;1.27;;
22935;SDS011;11633;42.716;23.312;2022-12-01T07:48:38;1.27;;;1.17;;
22935;SDS011;11633;42.716;23.312;2022-12-01T07:51:03;2.33;;;1.35;;
22935;SDS011;11633;42.716;23.312;2022-12-01T07:53:29;1.58;;;1.15;;
22935;SDS011;11633;42.716;23.312;2022-12-01T07:55:54;2.42;;;1.52;;
22935;SDS011;11633;42.716;23.312;2022-12-01T07:58:19;3.65;;;1.52;;
22935;SDS011;11633;42.716;23.312;2022-12-01T08:00:45;2.75;;;1.80;;
22935;SDS011;11633;42.716;23.312;2022-12-01T08:03:10;2.65;;;1.67;;
22935;SDS011;11633;42.716;23.312;2022-12-01T08:05:35;2.47;;;1.83;;
22935;SDS011;11633;42.716;23.312;2022-12-01T08:08:01;2.35;;;1.38;;
22935;SDS011;11633;42.716;23.312;2022-12-01T08:10:26;2.53;;;1.63;;
22935;SDS011;11633;42.716;23.312;2022-12-01T08:12:51;3.70;;;2.03;;
22935;SDS011;11633;42.716;23.312;2022-12-01T08:15:17;3.03;;;1.92;;
22935;SDS011;11633;42.716;23.312;2022-12-01T08:17:42;3.22;;;1.98;;
22935;SDS011;11633;42.716;23.312;2022-12-01T08:20:07;2.47;;;2.28;;
22935;SDS011;11633;42.716;23.312;2022-12-01T08:22:33;1.48;;;1.00;;
22935;SDS011;11633;42.716;23.312;2022-12-01T08:25:01;3.22;;;1.65;;
22935;SDS011;11633;42.716;23.312;2022-12-01T08:27:26;2.85;;;1.40;;
22935;SDS011;11633;42.716;23.312;2022-12-01T08:29:55;3.17;;;1.60;;
22935;SDS011;11633;42.716;23.312;2022-12-01T08:32:20;1.25;;;0.95;;
22935;SDS011;11633;42.716;23.312;2022-12-01T08:34:45;2.53;;;1.52;;
22935;SDS011;11633;42.716;23.312;2022-12-01T08:37:11;3.33;;;1.00;;
22935;SDS011;11633;42.716;23.312;2022-12-01T08:39:36;5.18;;;1.60;;
22935;SDS011;11633;42.716;23.312;2022-12-01T08:42:01;3.63;;;0.95;;
22935;SDS011;11633;42.716;23.312;2022-12-01T08:44:27;2.60;;;1.23;;
22935;SDS011;11633;42.716;23.312;2022-12-01T08:46:52;1.30;;;0.95;;
22935;SDS011;11633;42.716;23.312;2022-12-01T08:49:18;2.63;;;1.02;;
22935;SDS011;11633;42.716;23.312;2022-12-01T08:51:44;1.67;;;0.82;;
22935;SDS011;11633;42.716;23.312;2022-12-01T08:54:10;2.58;;;1.55;;
22935;SDS011;11633;42.716;23.312;2022-12-01T08:56:36;3.13;;;1.83;;
22935;SDS011;11633;42.716;23.312;2022-12-01T08:59:02;3.35;;;1.73;;
22935;SDS011;11633;42.716;23.312;2022-12-01T09:01:27;2.40;;;1.30;;
22935;SDS011;11633;42.716;23.312;2022-12-01T09:03:54;1.85;;;1.15;;
22935;SDS011;11633;42.716;23.312;2022-12-01T09:06:39;3.97;;;2.38;;
22935;SDS011;11633;42.716;23.312;2022-12-01T09:09:05;2.35;;;1.65;;
22935;SDS011;11633;42.716;23.312;2022-12-01T09:11:30;2.78;;;0.80;;
22935;SDS011;11633;42.716;23.312;2022-12-01T09:13:55;1.25;;;0.85;;
22935;SDS011;11633;42.716;23.312;2022-12-01T09:16:22;2.35;;;1.33;;
22935;SDS011;11633;42.716;23.312;2022-12-01T09:18:47;3.15;;;1.17;;
22935;SDS011;11633;42.716;23.312;2022-12-01T09:21:14;2.55;;;1.42;;
22935;SDS011;11633;42.716;23.312;2022-12-01T09:23:39;1.98;;;1.30;;
22935;SDS011;11633;42.716;23.312;2022-12-01T09:26:05;2.35;;;1.38;;
22935;SDS011;11633;42.716;23.312;2022-12-01T09:28:31;2.67;;;1.67;;
22935;SDS011;11633;42.716;23.312;2022-12-01T09:30:58;1.85;;;1.10;;
22935;SDS011;11633;42.716;23.312;2022-12-01T09:33:26;3.42;;;1.15;;
22935;SDS011;11633;42.716;23.312;2022-12-01T09:35:56;3.83;;;1.58;;
22935;SDS011;11633;42.716;23.312;2022-12-01T09:38:21;1.27;;;0.75;;
22935;SDS011;11633;42.716;23.312;2022-12-01T09:40:46;1.08;;;0.77;;
22935;SDS011;11633;42.716;23.312;2022-12-01T09:43:15;1.77;;;0.40;;
22935;SDS011;11633;42.716;23.312;2022-12-01T09:45:42;1.38;;;0.70;;
22935;SDS011;11633;42.716;23.312;2022-12-01T09:48:22;2.72;;;0.70;;
22935;SDS011;11633;42.716;23.312;2022-12-01T09:50:47;2.85;;;0.93;;
22935;SDS011;11633;42.716;23.312;2022-12-01T09:53:14;1.00;;;0.80;;
22935;SDS011;11633;42.716;23.312;2022-12-01T09:55:41;1.42;;;0.80;;
22935;SDS011;11633;42.716;23.312;2022-12-01T09:58:10;0.82;;;0.47;;
22935;SDS011;11633;42.716;23.312;2022-12-01T10:00:39;0.70;;;0.57;;
22935;SDS011;11633;42.716;23.312;2022-12-01T10:05:54;0.73;;;0.50;;
22935;SDS011;11633;42.716;23.312;2022-12-01T10:08:21;1.45;;;0.75;;
22935;SDS011;11633;42.716;23.312;2022-12-01T10:10:48;1.67;;;0.57;;
22935;SDS011;11633;42.716;23.312;2022-12-01T10:13:19;2.83;;;0.90;;
22935;SDS011;11633;42.716;23.312;2022-12-01T10:21:43;2.05;;;0.52;;
22935;SDS011;11633;42.716;23.312;2022-12-01T10:26:52;0.88;;;0.30;;
22935;SDS011;11633;42.716;23.312;2022-12-01T10:31:52;1.58;;;0.63;;
22935;SDS011;11633;42.716;23.312;2022-12-01T10:34:24;1.08;;;0.40;;
22935;SDS011;11633;42.716;23.312;2022-12-01T10:36:54;1.00;;;0.63;;
22935;SDS011;11633;42.716;23.312;2022-12-01T10:39:26;0.77;;;0.50;;
22935;SDS011;11633;42.716;23.312;2022-12-01T10:41:52;1.35;;;0.70;;
22935;SDS011;11633;42.716;23.312;2022-12-01T10:44:19;0.30;;;0.30;;
22935;SDS011;11633;42.716;23.312;2022-12-01T10:46:54;1.10;;;0.52;;
22935;SDS011;11633;42.716;23.312;2022-12-01T10:49:19;0.65;;;0.38;;
22935;SDS011;11633;42.716;23.312;2022-12-01T10:51:58;0.00;;;0.00;;
22935;SDS011;11633;42.716;23.312;2022-12-01T10:54:34;0.35;;;0.35;;
22935;SDS011;11633;42.716;23.312;2022-12-01T10:57:00;0.50;;;0.20;;
22935;SDS011;11633;42.716;23.312;2022-12-01T10:59:28;1.85;;;0.40;;
22935;SDS011;11633;42.716;23.312;2022-12-01T11:01:54;0.52;;;0.32;;
22935;SDS011;11633;42.716;23.312;2022-12-01T11:07:14;0.32;;;0.20;;
22935;SDS011;11633;42.716;23.312;2022-12-01T11:09:40;0.93;;;0.50;;
22935;SDS011;11633;42.716;23.312;2022-12-01T11:12:05;0.55;;;0.40;;
22935;SDS011;11633;42.716;23.312;2022-12-01T11:19:51;1.15;;;0.65;;
22935;SDS011;11633;42.716;23.312;2022-12-01T11:22:28;2.15;;;0.40;;
22935;SDS011;11633;42.716;23.312;2022-12-01T11:27:20;0.80;;;0.47;;
22935;SDS011;11633;42.716;23.312;2022-12-01T11:29:47;0.80;;;0.60;;
22935;SDS011;11633;42.716;23.312;2022-12-01T11:32:20;1.73;;;0.60;;
22935;SDS011;11633;42.716;23.312;2022-12-01T11:34:49;1.63;;;0.77;;
22935;SDS011;11633;42.716;23.312;2022-12-01T11:37:16;1.17;;;0.75;;
22935;SDS011;11633;42.716;23.312;2022-12-01T11:39:43;1.00;;;0.52;;
22935;SDS011;11633;42.716;23.312;2022-12-01T11:42:28;0.57;;;0.28;;
22935;SDS011;11633;42.716;23.312;2022-12-01T11:44:55;0.93;;;0.40;;
22935;SDS011;11633;42.716;23.312;2022-12-01T11:47:23;1.83;;;0.52;;
22935;SDS011;11633;42.716;23.312;2022-12-01T11:49:53;0.77;;;0.45;;
22935;SDS011;11633;42.716;23.312;2022-12-01T11:54:53;3.45;;;0.40;;
22935;SDS011;11633;42.716;23.312;2022-12-01T11:57:19;0.25;;;0.10;;
22935;SDS011;11633;42.716;23.312;2022-12-01T11:59:44;0.63;;;0.30;;
22935;SDS011;11633;42.716;23.312;2022-12-01T12:02:21;0.93;;;0.38;;
22935;SDS011;11633;42.716;23.312;2022-12-01T12:12:44;0.20;;;0.20;;
22935;SDS011;11633;42.716;23.312;2022-12-01T12:30:19;0.22;;;0.20;;
22935;SDS011;11633;42.716;23.312;2022-12-01T12:35:29;0.65;;;0.60;;
22935;SDS011;11633;42.716;23.312;2022-12-01T12:40:31;0.80;;;0.32;;
22935;SDS011;11633;42.716;23.312;2022-12-01T12:45:59;0.47;;;0.20;;
22935;SDS011;11633;42.716;23.312;2022-12-01T12:53:45;2.38;;;0.52;;
22935;SDS011;11633;42.716;23.312;2022-12-01T12:56:13;0.98;;;0.55;;
22935;SDS011;11633;42.716;23.312;2022-12-01T12:58:40;0.95;;;0.60;;
22935;SDS011;11633;42.716;23.312;2022-12-01T13:01:21;0.47;;;0.25;;
22935;SDS011;11633;42.716;23.312;2022-12-01T13:06:13;0.75;;;0.43;;
22935;SDS011;11633;42.716;23.312;2022-12-01T13:08:45;0.68;;;0.32;;
22935;SDS011;11633;42.716;23.312;2022-12-01T13:11:23;0.50;;;0.32;;
22935;SDS011;11633;42.716;23.312;2022-12-01T13:16:18;0.80;;;0.47;;
22935;SDS011;11633;42.716;23.312;2022-12-01T13:18:52;1.48;;;0.77;;
22935;SDS011;11633;42.716;23.312;2022-12-01T13:21:20;1.10;;;0.70;;
22935;SDS011;11633;42.716;23.312;2022-12-01T13:23:46;1.10;;;0.60;;
22935;SDS011;11633;42.716;23.312;2022-12-01T13:26:12;0.50;;;0.30;;
22935;SDS011;11633;42.716;23.312;2022-12-01T13:28:41;0.55;;;0.20;;
22935;SDS011;11633;42.716;23.312;2022-12-01T13:31:09;0.65;;;0.45;;
22935;SDS011;11633;42.716;23.312;2022-12-01T13:33:35;0.98;;;0.40;;
22935;SDS011;11633;42.716;23.312;2022-12-01T13:36:01;0.45;;;0.35;;
22935;SDS011;11633;42.716;23.312;2022-12-01T13:38:34;3.10;;;0.75;;
22935;SDS011;11633;42.716;23.312;2022-12-01T13:46:19;1.35;;;0.73;;
22935;SDS011;11633;42.716;23.312;2022-12-01T13:51:10;2.40;;;0.60;;
22935;SDS011;11633;42.716;23.312;2022-12-01T13:53:36;2.45;;;1.00;;
22935;SDS011;11633;42.716;23.312;2022-12-01T14:01:41;1.98;;;0.75;;
22935;SDS011;11633;42.716;23.312;2022-12-01T14:09:22;1.60;;;0.75;;
22935;SDS011;11633;42.716;23.312;2022-12-01T14:14:35;2.25;;;1.17;;
22935;SDS011;11633;42.716;23.312;2022-12-01T14:17:01;1.92;;;0.47;;
22935;SDS011;11633;42.716;23.312;2022-12-01T14:21:59;1.25;;;0.80;;
22935;SDS011;11633;42.716;23.312;2022-12-01T14:24:26;1.63;;;1.00;;
22935;SDS011;11633;42.716;23.312;2022-12-01T14:26:53;2.25;;;1.02;;
22935;SDS011;11633;42.716;23.312;2022-12-01T14:29:23;1.42;;;0.80;;
22935;SDS011;11633;42.716;23.312;2022-12-01T14:34:18;2.85;;;1.50;;
22935;SDS011;11633;42.716;23.312;2022-12-01T14:39:39;2.60;;;1.35;;
22935;SDS011;11633;42.716;23.312;2022-12-01T14:49:36;1.63;;;0.88;;
22935;SDS011;11633;42.716;23.312;2022-12-01T14:52:05;2.20;;;0.90;;
22935;SDS011;11633;42.716;23.312;2022-12-01T14:54:32;1.42;;;0.95;;
22935;SDS011;11633;42.716;23.312;2022-12-01T14:57:00;4.55;;;2.22;;
22935;SDS011;11633;42.716;23.312;2022-12-01T14:59:25;4.38;;;2.13;;
22935;SDS011;11633;42.716;23.312;2022-12-01T15:01:56;3.10;;;1.58;;
22935;SDS011;11633;42.716;23.312;2022-12-01T15:04:21;1.83;;;1.17;;
22935;SDS011;11633;42.716;23.312;2022-12-01T15:06:51;1.63;;;0.90;;
22935;SDS011;11633;42.716;23.312;2022-12-01T15:09:18;2.70;;;1.15;;
22935;SDS011;11633;42.716;23.312;2022-12-01T15:14:50;4.93;;;2.05;;
22935;SDS011;11633;42.716;23.312;2022-12-01T15:17:24;4.07;;;2.03;;
22935;SDS011;11633;42.716;23.312;2022-12-01T15:19:50;5.10;;;2.33;;
22935;SDS011;11633;42.716;23.312;2022-12-01T15:22:16;5.00;;;1.88;;
22935;SDS011;11633;42.716;23.312;2022-12-01T15:24:42;2.85;;;1.83;;
22935;SDS011;11633;42.716;23.312;2022-12-01T15:29:50;2.85;;;1.90;;
22935;SDS011;11633;42.716;23.312;2022-12-01T15:32:16;5.72;;;1.75;;
22935;SDS011;11633;42.716;23.312;2022-12-01T15:34:45;3.80;;;1.95;;
22935;SDS011;11633;42.716;23.312;2022-12-01T15:37:12;7.45;;;2.92;;
22935;SDS011;11633;42.716;23.312;2022-12-01T15:39:41;1.73;;;1.48;;
22935;SDS011;11633;42.716;23.312;2022-12-01T15:42:14;4.05;;;1.50;;
22935;SDS011;11633;42.716;23.312;2022-12-01T15:44:42;6.53;;;2.72;;
22935;SDS011;11633;42.716;23.312;2022-12-01T15:49:52;5.20;;;2.93;;
22935;SDS011;11633;42.716;23.312;2022-12-01T15:52:17;2.17;;;1.35;;
22935;SDS011;11633;42.716;23.312;2022-12-01T15:54:45;3.30;;;1.40;;
22935;SDS011;11633;42.716;23.312;2022-12-01T15:57:11;4.00;;;2.05;;
22935;SDS011;11633;42.716;23.312;2022-12-01T15:59:40;5.40;;;2.47;;
22935;SDS011;11633;42.716;23.312;2022-12-01T16:04:43;3.97;;;2.28;;
22935;SDS011;11633;42.716;23.312;2022-12-01T16:07:09;5.25;;;2.40;;
22935;SDS011;11633;42.716;23.312;2022-12-01T16:17:19;7.68;;;4.15;;
22935;SDS011;11633;42.716;23.312;2022-12-01T16:19:44;9.80;;;5.57;;
22935;SDS011;11633;42.716;23.312;2022-12-01T16:24:36;8.25;;;5.43;;
22935;SDS011;11633;42.716;23.312;2022-12-01T16:32:22;4.80;;;2.45;;
22935;SDS011;11633;42.716;23.312;2022-12-01T16:34:50;7.05;;;2.13;;
22935;SDS011;11633;42.716;23.312;2022-12-01T16:37:16;7.05;;;3.28;;
22935;SDS011;11633;42.716;23.312;2022-12-01T16:39:41;6.55;;;3.05;;
22935;SDS011;11633;42.716;23.312;2022-12-01T16:42:10;4.70;;;2.95;;
22935;SDS011;11633;42.716;23.312;2022-12-01T16:44:35;5.43;;;2.63;;
22935;SDS011;11633;42.716;23.312;2022-12-01T16:47:00;6.50;;;3.00;;
22935;SDS011;11633;42.716;23.312;2022-12-01T16:49:29;6.47;;;3.10;;
22935;SDS011;11633;42.716;23.312;2022-12-01T16:51:54;6.38;;;3.05;;
22935;SDS011;11633;42.716;23.312;2022-12-01T16:54:19;6.30;;;3.05;;
22935;SDS011;11633;42.716;23.312;2022-12-01T16:56:44;7.40;;;3.78;;
22935;SDS011;11633;42.716;23.312;2022-12-01T16:59:10;6.85;;;3.30;;
22935;SDS011;11633;42.716;23.312;2022-12-01T17:01:35;6.10;;;4.15;;
22935;SDS011;11633;42.716;23.312;2022-12-01T17:04:00;5.57;;;3.55;;
22935;SDS011;11633;42.716;23.312;2022-12-01T17:06:25;8.07;;;4.53;;
22935;SDS011;11633;42.716;23.312;2022-12-01T17:08:51;6.30;;;4.10;;
22935;SDS011;11633;42.716;23.312;2022-12-01T17:11:16;5.85;;;3.83;;
22935;SDS011;11633;42.716;23.312;2022-12-01T17:13:42;6.30;;;3.28;;
22935;SDS011;11633;42.716;23.312;2022-12-01T17:16:07;4.05;;;3.38;;
22935;SDS011;11633;42.716;23.312;2022-12-01T17:18:37;4.95;;;2.92;;
22935;SDS011;11633;42.716;23.312;2022-12-01T17:21:05;5.78;;;2.75;;
22935;SDS011;11633;42.716;23.312;2022-12-01T17:23:30;3.15;;;2.63;;
22935;SDS011;11633;42.716;23.312;2022-12-01T17:25:57;5.32;;;2.60;;
22935;SDS011;11633;42.716;23.312;2022-12-01T17:28:22;5.57;;;3.00;;
22935;SDS011;11633;42.716;23.312;2022-12-01T17:30:47;5.72;;;2.78;;
22935;SDS011;11633;42.716;23.312;2022-12-01T17:33:13;4.60;;;3.10;;
22935;SDS011;11633;42.716;23.312;2022-12-01T17:35:38;6.32;;;3.55;;
22935;SDS011;11633;42.716;23.312;2022-12-01T17:38:03;6.70;;;3.50;;